createdAt,value
2023-12-12T00:02:09.634Z,5.00
2023-12-12T00:04:46.589Z,9.10
2023-12-12T00:07:23.802Z,8.87
2023-12-12T00:09:59.047Z,5.03
2023-12-12T00:12:39.732Z,6.23
2023-12-12T00:15:17.620Z,4.00
2023-12-12T00:17:55.460Z,10.57
2023-12-12T00:20:32.692Z,10.57
2023-12-12T00:23:08.901Z,10.10
2023-12-12T00:25:46.554Z,8.60
2023-12-12T00:28:18.463Z,14.57
2023-12-12T00:30:53.319Z,6.23
2023-12-12T00:33:27.558Z,7.67
2023-12-12T00:36:08.859Z,7.43
2023-12-12T00:38:40.811Z,8.43
2023-12-12T00:41:14.968Z,12.67
2023-12-12T00:43:57.758Z,9.17
2023-12-12T00:46:29.805Z,5.77
2023-12-12T00:49:05.018Z,6.60
2023-12-12T00:51:59.819Z,9.43
2023-12-12T00:54:35.146Z,6.13
2023-12-12T00:57:14.631Z,7.97
2023-12-12T00:59:46.535Z,5.80
2023-12-12T01:02:28.558Z,9.13
2023-12-12T01:05:00.462Z,7.73
2023-12-12T01:07:38.557Z,7.63
2023-12-12T01:10:11.416Z,10.23
2023-12-12T01:12:48.820Z,8.40
2023-12-12T01:15:25.968Z,6.33
2023-12-12T01:17:57.963Z,7.33
2023-12-12T01:20:32.101Z,6.53
2023-12-12T01:23:07.043Z,9.50
2023-12-12T01:25:39.313Z,10.17
2023-12-12T01:28:11.165Z,6.87
2023-12-12T01:30:54.485Z,6.70
2023-12-12T01:33:29.339Z,9.97
2023-12-12T01:36:24.984Z,3.50
2023-12-12T01:39:03.990Z,7.30
2023-12-12T01:41:35.768Z,7.33
2023-12-12T01:44:09.743Z,8.73
2023-12-12T01:46:43.742Z,8.37
2023-12-12T01:49:17.922Z,6.40
2023-12-12T01:51:54.967Z,3.33
2023-12-12T01:54:30.430Z,9.73
2023-12-12T01:57:02.623Z,7.03
2023-12-12T01:59:35.699Z,8.27
2023-12-12T02:02:08.421Z,4.30
2023-12-12T02:04:44.304Z,4.53
2023-12-12T02:07:37.415Z,7.17
2023-12-12T02:10:15.747Z,4.77
2023-12-12T02:12:47.515Z,4.23
2023-12-12T02:15:20.174Z,4.20
2023-12-12T02:18:12.092Z,8.80
2023-12-12T02:21:04.150Z,3.73
2023-12-12T02:23:40.917Z,7.53
2023-12-12T02:26:15.305Z,6.53
2023-12-12T02:28:52.457Z,3.83
2023-12-12T02:31:26.710Z,2.53
2023-12-12T02:34:00.725Z,6.23
2023-12-12T02:36:32.697Z,5.97
2023-12-12T02:39:07.589Z,5.67
2023-12-12T02:41:42.372Z,5.23
2023-12-12T02:44:16.911Z,16.33
2023-12-12T02:46:51.927Z,5.43
2023-12-12T02:49:26.612Z,11.97
2023-12-12T02:51:58.637Z,11.20
2023-12-12T02:54:45.576Z,8.70
2023-12-12T02:57:17.657Z,11.03
2023-12-12T02:59:52.244Z,4.93
2023-12-12T03:02:26.431Z,8.00
2023-12-12T03:04:58.630Z,5.47
2023-12-12T03:07:30.562Z,6.10
2023-12-12T03:10:05.453Z,6.40
2023-12-12T03:12:44.781Z,6.57
2023-12-12T03:15:22.510Z,9.57
2023-12-12T03:17:57.162Z,5.63
2023-12-12T03:21:01.611Z,14.97
2023-12-12T03:23:43.416Z,16.63
2023-12-12T03:26:20.553Z,15.17
2023-12-12T03:28:52.314Z,11.40
2023-12-12T03:31:26.972Z,10.23
2023-12-12T03:34:19.185Z,6.40
2023-12-12T03:37:31.617Z,4.23
2023-12-12T03:40:43.756Z,8.23
2023-12-12T03:43:31.275Z,6.57
2023-12-12T03:46:30.486Z,7.20
2023-12-12T03:49:42.545Z,4.97
2023-12-12T03:52:45.931Z,6.13
2023-12-12T03:55:18.728Z,7.13
2023-12-12T03:57:51.058Z,7.93
2023-12-12T04:00:26.038Z,9.30
2023-12-12T04:02:57.959Z,7.90
2023-12-12T04:05:32.055Z,6.70
2023-12-12T04:08:03.762Z,11.17
2023-12-12T04:10:35.796Z,8.40
2023-12-12T04:13:10.527Z,12.07
2023-12-12T04:15:47.741Z,5.47
2023-12-12T04:18:29.788Z,10.33
2023-12-12T04:21:41.787Z,6.77
2023-12-12T04:24:19.347Z,6.90
2023-12-12T04:26:51.123Z,10.23
2023-12-12T04:29:22.856Z,9.03
2023-12-12T04:31:59.579Z,8.70
2023-12-12T04:34:51.600Z,7.73
2023-12-12T04:37:26.718Z,4.77
2023-12-12T04:40:04.390Z,8.43
2023-12-12T04:42:39.792Z,7.20
2023-12-12T04:45:14.726Z,6.47
2023-12-12T04:47:51.984Z,7.03
2023-12-12T04:50:26.633Z,10.43
2023-12-12T04:52:58.442Z,6.30
2023-12-12T04:55:33.267Z,8.97
2023-12-12T04:58:08.022Z,7.87
2023-12-12T05:00:49.210Z,4.73
2023-12-12T05:03:26.158Z,9.00
2023-12-12T05:06:01.093Z,11.83
2023-12-12T05:08:38.522Z,9.13
2023-12-12T05:11:17.894Z,6.33
2023-12-12T05:14:01.575Z,11.03
2023-12-12T05:16:38.745Z,9.83
2023-12-12T05:19:13.453Z,12.00
2023-12-12T05:21:48.793Z,13.97
2023-12-12T05:24:23.160Z,10.93
2023-12-12T05:26:55.309Z,9.63
2023-12-12T05:30:00.372Z,17.03
2023-12-12T05:32:32.447Z,10.87
2023-12-12T05:35:12.109Z,7.43
2023-12-12T05:37:46.542Z,11.20
2023-12-12T05:40:21.568Z,9.73
2023-12-12T05:42:53.742Z,11.07
2023-12-12T05:45:45.672Z,11.93
2023-12-12T05:48:17.830Z,7.33
2023-12-12T05:50:54.859Z,14.47
2023-12-12T05:53:46.760Z,13.77
2023-12-12T05:56:22.172Z,8.83
2023-12-12T05:58:54.426Z,8.93
2023-12-12T06:01:26.222Z,8.10
2023-12-12T06:04:40.016Z,9.40
2023-12-12T06:07:22.106Z,6.20
2023-12-12T06:09:58.994Z,8.37
2023-12-12T06:12:36.124Z,6.93
2023-12-12T06:15:09.388Z,6.57
2023-12-12T06:17:41.166Z,14.40
2023-12-12T06:20:14.778Z,8.57
2023-12-12T06:23:00.465Z,14.10
2023-12-12T06:25:32.809Z,10.20
2023-12-12T06:28:09.259Z,6.90
2023-12-12T06:30:40.903Z,18.37
2023-12-12T06:33:12.841Z,6.40
2023-12-12T06:35:47.102Z,7.10
2023-12-12T06:38:34.166Z,10.27
2023-12-12T06:41:14.397Z,7.63
2023-12-12T06:43:48.587Z,10.87
2023-12-12T06:46:23.716Z,5.30
2023-12-12T06:48:55.386Z,9.53
2023-12-12T06:51:32.658Z,8.60
2023-12-12T06:54:10.556Z,10.03
2023-12-12T06:57:05.263Z,9.50
2023-12-12T06:59:40.528Z,5.40
2023-12-12T07:02:15.971Z,8.80
2023-12-12T07:05:09.012Z,8.07
2023-12-12T07:08:00.988Z,9.57
2023-12-12T07:11:05.646Z,10.23
2023-12-12T07:13:58.894Z,10.63
2023-12-12T07:16:36.309Z,7.17
2023-12-12T07:19:20.726Z,11.03
2023-12-12T07:22:32.985Z,9.00
2023-12-12T07:25:45.359Z,6.47
2023-12-12T07:28:40.741Z,8.03
2023-12-12T07:31:36.157Z,10.33
2023-12-12T07:34:08.299Z,7.63
2023-12-12T07:37:20.466Z,13.70
2023-12-12T07:40:22.416Z,13.07
2023-12-12T07:43:00.083Z,8.13
2023-12-12T07:45:42.347Z,9.10
2023-12-12T07:48:14.737Z,10.53
2023-12-12T07:51:06.270Z,9.40
2023-12-12T07:53:40.195Z,6.60
2023-12-12T07:56:17.117Z,8.47
2023-12-12T07:58:48.903Z,6.70
2023-12-12T08:01:26.477Z,5.83
2023-12-12T08:04:11.120Z,11.40
2023-12-12T08:07:06.154Z,9.70
2023-12-12T08:09:50.801Z,13.03
2023-12-12T08:12:42.576Z,6.97
2023-12-12T08:15:21.556Z,4.93
2023-12-12T08:17:56.249Z,4.67
2023-12-12T08:20:57.951Z,12.40
2023-12-12T08:23:34.582Z,9.30
2023-12-12T08:26:16.636Z,9.77
2023-12-12T08:29:19.470Z,7.87
2023-12-12T08:31:51.335Z,14.87
2023-12-12T08:34:35.134Z,9.47
2023-12-12T08:37:30.530Z,11.63
2023-12-12T08:40:05.850Z,14.40
2023-12-12T08:43:01.255Z,6.43
2023-12-12T08:45:56.669Z,9.67
2023-12-12T08:48:34.065Z,9.67
2023-12-12T08:51:38.628Z,11.10
2023-12-12T08:54:14.073Z,10.50
2023-12-12T08:56:55.505Z,10.27
2023-12-12T08:59:49.023Z,10.13
2023-12-12T09:02:41.911Z,8.27
2023-12-12T09:05:25.993Z,16.33
2023-12-12T09:08:14.888Z,9.73
2023-12-12T09:10:52.036Z,9.53
2023-12-12T09:13:26.970Z,11.23
2023-12-12T09:16:19.352Z,8.43
2023-12-12T09:18:51.641Z,12.37
2023-12-12T09:22:04.047Z,11.97
2023-12-12T09:24:49.550Z,8.53
2023-12-12T09:27:28.713Z,8.30
2023-12-12T09:30:15.296Z,10.93
2023-12-12T09:33:03.114Z,8.30
2023-12-12T09:35:44.070Z,12.23
2023-12-12T09:38:16.934Z,8.53
2023-12-12T09:41:25.842Z,8.97
2023-12-12T09:44:31.277Z,9.93
2023-12-12T09:47:09.291Z,8.23
2023-12-12T09:49:46.874Z,11.83
2023-12-12T09:52:40.561Z,11.83
2023-12-12T09:55:27.738Z,6.67
2023-12-12T09:58:12.958Z,10.23
2023-12-12T10:00:56.748Z,10.27
2023-12-12T10:03:31.297Z,9.97
2023-12-12T10:06:35.496Z,10.02
2023-12-12T10:09:10.531Z,9.53
2023-12-12T10:11:45.395Z,7.30
2023-12-12T10:14:39.233Z,6.50
2023-12-12T10:17:15.617Z,12.13
2023-12-12T10:19:47.991Z,8.10
2023-12-12T10:22:28.805Z,12.83
2023-12-12T10:25:16.353Z,8.30
2023-12-12T10:27:54.510Z,9.27
2023-12-12T10:30:30.435Z,6.53
2023-12-12T10:33:15.980Z,7.73
2023-12-12T10:36:13.857Z,9.57
2023-12-12T10:38:46.285Z,5.93
2023-12-12T10:41:29.965Z,10.23
2023-12-12T10:44:26.144Z,8.77
2023-12-12T10:47:03.832Z,9.83
2023-12-12T10:49:50.708Z,8.07
2023-12-12T10:52:39.022Z,9.93
2023-12-12T10:55:31.667Z,12.77
2023-12-12T10:58:24.217Z,7.97
2023-12-12T11:00:59.293Z,5.60
2023-12-12T11:04:00.223Z,8.10
2023-12-12T11:06:52.528Z,8.90
2023-12-12T11:09:47.795Z,7.28
2023-12-12T11:12:56.358Z,10.15
2023-12-12T11:16:05.281Z,10.02
2023-12-12T11:18:41.500Z,13.18
2023-12-12T11:21:49.020Z,8.88
2023-12-12T11:25:09.042Z,12.13
2023-12-12T11:27:45.295Z,11.82
2023-12-12T11:30:24.380Z,9.38
2023-12-12T11:33:10.272Z,10.40
2023-12-12T11:35:51.695Z,12.00
2023-12-12T11:38:36.569Z,12.52
2023-12-12T11:41:19.628Z,9.07
2023-12-12T11:44:15.475Z,13.93
2023-12-12T11:46:48.371Z,9.10
2023-12-12T11:49:24.887Z,8.50
2023-12-12T11:51:59.262Z,11.02
2023-12-12T11:54:36.144Z,14.32
2023-12-12T11:57:16.153Z,6.85
2023-12-12T11:59:50.486Z,5.80
2023-12-12T12:02:24.696Z,15.38
2023-12-12T12:05:16.848Z,10.00
2023-12-12T12:07:49.137Z,6.88
2023-12-12T12:10:58.885Z,5.93
2023-12-12T12:14:11.734Z,10.63
2023-12-12T12:16:44.188Z,9.18
2023-12-12T12:19:35.442Z,10.18
2023-12-12T12:22:43.013Z,12.23
2023-12-12T12:25:29.396Z,7.88
2023-12-12T12:28:24.565Z,10.95
2023-12-12T12:31:07.603Z,7.15
2023-12-12T12:34:00.239Z,11.05
2023-12-12T12:36:55.509Z,11.55
2023-12-12T12:39:50.820Z,11.13
2023-12-12T12:42:22.681Z,8.07
2023-12-12T12:45:20.237Z,11.07
2023-12-12T12:47:52.525Z,6.53
2023-12-12T12:50:34.290Z,9.55
2023-12-12T12:53:06.506Z,9.60
2023-12-12T12:55:38.272Z,10.63
2023-12-12T12:58:09.938Z,5.18
2023-12-12T13:00:46.916Z,7.72
2023-12-12T13:03:19.474Z,7.47
2023-12-12T13:06:12.299Z,7.97
2023-12-12T13:08:47.668Z,11.57
2023-12-12T13:11:23.061Z,6.88
2023-12-12T13:14:17.195Z,12.75
2023-12-12T13:16:55.013Z,8.10
2023-12-12T13:19:28.671Z,7.05
2023-12-12T13:22:00.758Z,9.48
2023-12-12T13:24:32.671Z,11.85
2023-12-12T13:27:24.566Z,5.28
2023-12-12T13:30:00.956Z,7.18
2023-12-12T13:32:37.815Z,9.10
2023-12-12T13:35:21.150Z,9.10
2023-12-12T13:37:59.636Z,12.35
2023-12-12T13:40:51.582Z,11.32
2023-12-12T13:43:24.962Z,6.95
2023-12-12T13:45:59.305Z,10.32
2023-12-12T13:48:33.893Z,8.60
2023-12-12T13:51:07.073Z,6.10
2023-12-12T13:53:52.024Z,10.50
2023-12-12T13:56:23.958Z,10.30
2023-12-12T13:59:03.928Z,5.88
2023-12-12T14:01:39.355Z,5.60
2023-12-12T14:04:23.604Z,6.88
2023-12-12T14:06:58.388Z,10.85
2023-12-12T14:09:38.531Z,12.55
2023-12-12T14:12:11.560Z,7.90
2023-12-12T14:15:04.853Z,8.50
2023-12-12T14:17:57.479Z,8.75
2023-12-12T14:20:35.891Z,11.25
2023-12-12T14:23:20.635Z,6.90
2023-12-12T14:26:26.890Z,12.45
2023-12-12T14:28:58.858Z,10.85
2023-12-12T14:31:37.361Z,11.63
2023-12-12T14:34:19.275Z,9.38
2023-12-12T14:37:14.301Z,9.02
2023-12-12T14:39:55.128Z,12.30
2023-12-12T14:43:04.836Z,13.85
2023-12-12T14:45:36.762Z,14.10
2023-12-12T14:48:33.802Z,16.15
2023-12-12T14:51:35.219Z,7.53
2023-12-12T14:54:09.867Z,16.05
2023-12-12T14:56:48.497Z,13.48
2023-12-12T14:59:23.323Z,13.95
2023-12-12T15:02:09.538Z,10.30
2023-12-12T15:05:03.915Z,11.43
2023-12-12T15:07:35.970Z,6.28
2023-12-12T15:10:40.061Z,12.27
2023-12-12T15:13:20.291Z,10.55
2023-12-12T15:16:22.563Z,13.77
2023-12-12T15:19:06.617Z,11.93
2023-12-12T15:22:00.999Z,9.68
2023-12-12T15:24:36.072Z,7.97
2023-12-12T15:27:19.397Z,9.77
2023-12-12T15:30:05.317Z,10.20
2023-12-12T15:32:47.003Z,9.90
2023-12-12T15:35:22.558Z,16.58
2023-12-12T15:38:22.178Z,11.37
2023-12-12T15:40:56.602Z,10.63
2023-12-12T15:43:33.866Z,13.85
2023-12-12T15:46:39.529Z,7.93
2023-12-12T15:49:36.473Z,11.73
2023-12-12T15:52:28.726Z,14.70
2023-12-12T15:55:03.277Z,9.47
2023-12-12T15:58:03.360Z,17.90
2023-12-12T16:00:40.439Z,12.10
2023-12-12T16:03:17.132Z,10.53
2023-12-12T16:06:12.100Z,12.93
2023-12-12T16:08:53.850Z,10.65
2023-12-12T16:11:25.735Z,10.45
2023-12-12T16:14:13.702Z,12.43
2023-12-12T16:17:08.838Z,9.93
2023-12-12T16:19:53.576Z,11.70
2023-12-12T16:22:47.139Z,10.73
2023-12-12T16:25:19.019Z,9.57
2023-12-12T16:28:03.106Z,13.60
2023-12-12T16:30:35.578Z,18.77
2023-12-12T16:33:12.556Z,13.13
2023-12-12T16:35:44.475Z,11.17
2023-12-12T16:38:22.725Z,10.60
2023-12-12T16:40:54.880Z,12.43
2023-12-12T16:43:26.956Z,10.50
2023-12-12T16:45:58.679Z,15.63
2023-12-12T16:48:38.642Z,7.73
2023-12-12T16:51:11.678Z,14.17
2023-12-12T16:54:06.906Z,13.67
2023-12-12T16:56:38.754Z,11.40
2023-12-12T16:59:10.741Z,7.13
2023-12-12T17:01:47.441Z,13.80
2023-12-12T17:04:28.855Z,11.77
2023-12-12T17:07:01.122Z,8.93
2023-12-12T17:09:35.295Z,16.47
2023-12-12T17:12:10.874Z,12.33
2023-12-12T17:14:45.768Z,14.77
2023-12-12T17:17:17.592Z,10.70
2023-12-12T17:19:54.241Z,12.90
2023-12-12T17:22:26.199Z,11.87
2023-12-12T17:24:58.623Z,16.80
2023-12-12T17:27:33.710Z,10.07
2023-12-12T17:30:10.949Z,16.57
2023-12-12T17:32:52.720Z,16.87
2023-12-12T17:35:28.292Z,15.40
2023-12-12T17:38:44.174Z,18.33
2023-12-12T17:41:19.384Z,25.73
2023-12-12T17:44:11.554Z,24.40
2023-12-12T17:46:46.278Z,16.17
2023-12-12T17:49:58.533Z,20.80
2023-12-12T17:52:42.008Z,15.00
2023-12-12T17:55:14.509Z,17.60
2023-12-12T17:58:06.475Z,18.63
2023-12-12T18:01:01.431Z,14.23
2023-12-12T18:03:35.536Z,15.63
2023-12-12T18:06:16.630Z,20.60
2023-12-12T18:09:12.182Z,19.87
2023-12-12T18:11:55.041Z,14.77
2023-12-12T18:14:26.944Z,17.20
2023-12-12T18:17:05.271Z,20.93
2023-12-12T18:19:37.703Z,15.00
2023-12-12T18:22:09.590Z,15.40
2023-12-12T18:24:47.371Z,18.23
2023-12-12T18:27:19.233Z,16.90
2023-12-12T18:29:53.750Z,17.20
2023-12-12T18:32:26.200Z,14.73
2023-12-12T18:35:01.029Z,16.20
2023-12-12T18:38:02.277Z,16.87
2023-12-12T18:40:40.050Z,16.93
2023-12-12T18:43:12.102Z,15.83
2023-12-12T18:45:54.377Z,32.67
2023-12-12T18:48:46.770Z,22.10
2023-12-12T18:51:18.596Z,17.90
2023-12-12T18:54:11.708Z,16.17
2023-12-12T18:56:49.969Z,18.47
2023-12-12T18:59:31.098Z,21.43
2023-12-12T19:02:43.985Z,20.07
2023-12-12T19:05:45.839Z,19.87
2023-12-12T19:08:37.859Z,25.90
2023-12-12T19:11:30.060Z,23.63
2023-12-12T19:14:07.991Z,27.13
2023-12-12T19:16:43.681Z,28.33
2023-12-12T19:19:37.970Z,38.03
2023-12-12T19:22:13.360Z,21.93
2023-12-12T19:24:45.174Z,27.57
2023-12-12T19:27:37.199Z,19.20
2023-12-12T19:30:16.964Z,29.40
2023-12-12T19:32:49.153Z,24.50
2023-12-12T19:35:52.401Z,25.77
2023-12-12T19:38:44.273Z,25.03
2023-12-12T19:41:19.705Z,23.50
2023-12-12T19:44:11.582Z,22.50
2023-12-12T19:46:52.512Z,22.73
2023-12-12T19:49:24.480Z,24.37
2023-12-12T19:52:26.036Z,21.60
2023-12-12T19:54:58.328Z,21.00
2023-12-12T19:57:42.874Z,22.57
2023-12-12T20:00:35.831Z,20.90
2023-12-12T20:03:29.676Z,20.57
2023-12-12T20:06:32.823Z,22.90
2023-12-12T20:09:08.214Z,27.43
2023-12-12T20:11:43.466Z,21.03
2023-12-12T20:14:36.490Z,20.07
2023-12-12T20:17:10.235Z,23.90
2023-12-12T20:19:51.089Z,21.23
2023-12-12T20:22:28.555Z,18.80
2023-12-12T20:25:03.500Z,22.83
2023-12-12T20:27:46.646Z,27.97
2023-12-12T20:30:41.877Z,18.73
2023-12-12T20:33:27.169Z,19.87
2023-12-12T20:36:07.407Z,24.87
2023-12-12T20:39:01.989Z,22.13
2023-12-12T20:41:36.258Z,24.37
2023-12-12T20:44:08.393Z,25.93
2023-12-12T20:46:50.366Z,24.93
2023-12-12T20:49:24.492Z,24.23
2023-12-12T20:52:08.186Z,29.97
2023-12-12T20:55:11.350Z,29.90
2023-12-12T20:58:23.621Z,32.20
2023-12-12T21:00:55.837Z,32.93
2023-12-12T21:03:39.760Z,30.07
2023-12-12T21:06:52.065Z,36.90
2023-12-12T21:09:35.972Z,30.17
2023-12-12T21:12:08.635Z,32.00
2023-12-12T21:14:56.162Z,28.33
2023-12-12T21:17:27.865Z,25.67
2023-12-12T21:20:02.724Z,21.70
2023-12-12T21:22:39.887Z,32.77
2023-12-12T21:25:17.440Z,32.07
2023-12-12T21:28:19.373Z,29.40
2023-12-12T21:31:31.702Z,26.17
2023-12-12T21:34:14.264Z,26.63
2023-12-12T21:37:26.464Z,29.10
2023-12-12T21:40:39.906Z,24.90
2023-12-12T21:43:44.879Z,30.20
2023-12-12T21:46:22.316Z,24.17
2023-12-12T21:49:26.251Z,25.00
2023-12-12T21:52:21.562Z,27.50
2023-12-12T21:55:22.338Z,22.07
2023-12-12T21:58:18.719Z,25.37
2023-12-12T22:01:04.254Z,18.03
2023-12-12T22:04:09.537Z,28.13
2023-12-12T22:07:01.868Z,21.90
2023-12-12T22:09:39.310Z,26.60
2023-12-12T22:12:26.288Z,25.10
2023-12-12T22:15:16.557Z,26.87
2023-12-12T22:18:10.000Z,29.40
2023-12-12T22:21:13.485Z,24.23
2023-12-12T22:24:25.507Z,23.73
2023-12-12T22:27:17.394Z,20.93
2023-12-12T22:29:56.389Z,23.40
2023-12-12T22:32:36.419Z,26.33
2023-12-12T22:35:48.360Z,27.73
2023-12-12T22:38:44.808Z,23.47
2023-12-12T22:41:51.225Z,23.67
2023-12-12T22:44:46.024Z,24.50
2023-12-12T22:47:50.808Z,17.40
2023-12-12T22:51:02.827Z,28.70
2023-12-12T22:53:34.596Z,17.83
2023-12-12T22:56:16.160Z,26.63
2023-12-12T22:59:28.188Z,22.13
2023-12-12T23:02:03.405Z,16.60
2023-12-12T23:05:01.376Z,21.67
2023-12-12T23:07:57.291Z,18.00
2023-12-12T23:11:11.854Z,20.80
2023-12-12T23:14:14.655Z,17.30
2023-12-12T23:17:26.645Z,27.30
2023-12-12T23:20:12.357Z,23.77
2023-12-12T23:23:25.573Z,21.40
2023-12-12T23:25:57.433Z,21.03
2023-12-12T23:28:59.280Z,24.53
2023-12-12T23:31:54.160Z,22.70
2023-12-12T23:34:39.823Z,19.97
2023-12-12T23:37:20.973Z,17.30
2023-12-12T23:40:14.596Z,22.97
2023-12-12T23:43:16.491Z,23.13
2023-12-12T23:46:05.308Z,19.13
2023-12-12T23:48:52.289Z,18.67
2023-12-12T23:51:47.440Z,19.03
2023-12-12T23:54:34.823Z,20.10
2023-12-12T23:57:37.581Z,18.90
